Valleyview, Canada
Current Conditions -  °F | °C
As of 12:00 PM on Saturday 25 Oct 2014 (Local Time) from CYQU Reporting Station
Overcast Overcast  
Wind Chill: 29°   Ceiling: 12000
Heat Index: 36°   Visibility: 25mi
Dew Point: 28°   Wind: 8mph
Humidity: 75%   Direction: 80°E
Pressure: 29.81"   Gusts: NA
Location:  55.07°N, 117.28°W
Report Text: CYQU 251800Z 08007KT 25SM OVC120 02/M02 A2981 RMK AS8 SLP125
Loading
Personal Weather Stations






























Interactive Weather Map
Tropical Storm Tracking
New forecast layout! Learn more

10-Day Weather Forecast

Advertisements
Track Severe Weather on mobile